Sun Globe — 9HA2857 — position and weather

sailwx.info

Track history (hours):
 
Tides and Currents Weather Stations Pressure Air Temp Water Temp Dewpoint Dewpoint Depression Visibility Wind Speed Wind Dir Waves Ship Positions

Sun Globe

Last reported at 2014-Sep-02 21:07 UTC. Time now 2014-Nov-25 22:06 UTC.
Position N 22°12' E 120°13'.
Warning: this ship's position is months out of date.

Length 190 m; draft 9.8 m.

Type: Cargo ship. MMSI: 256415000.

Date/timePositionNaut miles runAvg speedWind from/ knotsBaromVisibWave heightAir tempDewpointWater temp
2014-Sep-02 21:07N 22°12' E 120°13'813.6
2014-Sep-02 20:33N 22°20' E 120°13'1312.5
2014-Sep-02 19:33N 22°32' E 120°14'5 0.4
2014-Sep-02 06:17N 22°34' E 120°20'0 0.0
2014-Sep-01 22:11N 22°34' E 120°20'0 0.0
2014-Sep-01 17:11N 22°34' E 120°20'0 0.0
2014-Sep-01 16:17N 22°34' E 120°20'0 0.0
2014-Aug-31 23:29N 22°34' E 120°20'0 0.0
2014-Aug-31 22:11N 22°34' E 120°20'0 0.0
2014-Aug-31 21:23N 22°34' E 120°20'0 0.0
2014-Aug-31 20:29N 22°34' E 120°20'0 0.0
2014-Aug-31 19:11N 22°34' E 120°20'0 0.0
2014-Aug-31 18:29N 22°34' E 120°20'0 0.0
2014-Aug-31 17:23N 22°34' E 120°20'0 0.0
2014-Aug-31 07:26N 22°34' E 120°20'0 0.0
2014-Aug-30 12:33N 22°33' E 120°19'1 1.2
2014-Aug-30 11:31N 22°34' E 120°18'0 0.1
2014-Aug-30 10:25N 22°34' E 120°18'0 0.0
2014-Aug-30 09:19N 22°34' E 120°18'0 0.0
2014-Aug-30 08:31N 22°34' E 120°18'0 0.1
2014-Aug-30 07:25N 22°34' E 120°18'0 0.0
2014-Aug-30 06:19N 22°34' E 120°18'0 0.0
2014-Aug-30 02:31N 22°34' E 120°18'0 0.0
2014-Aug-30 01:31N 22°34' E 120°18'0 0.1
2014-Aug-30 00:25N 22°34' E 120°18'0 0.1
2014-Aug-29 23:27N 22°34' E 120°18'2 2.8
2014-Aug-29 22:33N 22°32' E 120°17'20 9.7
2014-Aug-29 20:29N 22°48' E 120°03'46910.4
2014-Aug-27 23:14N 29°54' E 123°40'  
2014-Aug-25 18:07N 38°19' E 121°31'1011.1
2014-Aug-25 17:15N 38°23' E 121°20'  
Track history (hours):
 
Tides and Currents Weather Stations Pressure Air Temp Water Temp Dewpoint Dewpoint Depression Visibility Wind Speed Wind Dir Waves Ship Positions

Sun Globe

Last reported at 2014-Sep-02 21:07 UTC. Time now 2014-Nov-25 22:06 UTC.
Position N 22°12' E 120°13'.
Warning: this ship's position is months out of date.

Length 190 m; draft 9.8 m.

Type: Cargo ship. MMSI: 256415000.

Date/timePositionNaut miles runAvg speedWind from/ knotsBaromVisibWave heightAir tempDewpointWater temp
2014-Sep-02 21:07N 22°12' E 120°13'813.6
2014-Sep-02 20:33N 22°20' E 120°13'1312.5
2014-Sep-02 19:33N 22°32' E 120°14'5 0.4
2014-Sep-02 06:17N 22°34' E 120°20'0 0.0
2014-Sep-01 22:11N 22°34' E 120°20'0 0.0
2014-Sep-01 17:11N 22°34' E 120°20'0 0.0
2014-Sep-01 16:17N 22°34' E 120°20'0 0.0
2014-Aug-31 23:29N 22°34' E 120°20'0 0.0
2014-Aug-31 22:11N 22°34' E 120°20'0 0.0
2014-Aug-31 21:23N 22°34' E 120°20'0 0.0
2014-Aug-31 20:29N 22°34' E 120°20'0 0.0
2014-Aug-31 19:11N 22°34' E 120°20'0 0.0
2014-Aug-31 18:29N 22°34' E 120°20'0 0.0
2014-Aug-31 17:23N 22°34' E 120°20'0 0.0
2014-Aug-31 07:26N 22°34' E 120°20'0 0.0
2014-Aug-30 12:33N 22°33' E 120°19'1 1.2
2014-Aug-30 11:31N 22°34' E 120°18'0 0.1
2014-Aug-30 10:25N 22°34' E 120°18'0 0.0
2014-Aug-30 09:19N 22°34' E 120°18'0 0.0
2014-Aug-30 08:31N 22°34' E 120°18'0 0.1
2014-Aug-30 07:25N 22°34' E 120°18'0 0.0
2014-Aug-30 06:19N 22°34' E 120°18'0 0.0
2014-Aug-30 02:31N 22°34' E 120°18'0 0.0
2014-Aug-30 01:31N 22°34' E 120°18'0 0.1
2014-Aug-30 00:25N 22°34' E 120°18'0 0.1
2014-Aug-29 23:27N 22°34' E 120°18'2 2.8
2014-Aug-29 22:33N 22°32' E 120°17'20 9.7
2014-Aug-29 20:29N 22°48' E 120°03'46910.4
2014-Aug-27 23:14N 29°54' E 123°40'  
2014-Aug-25 18:07N 38°19' E 121°31'1011.1
2014-Aug-25 17:15N 38°23' E 121°20'  

Dump ship's entire track history